Time;durP1;ratioP1;P1;durP2;ratioP2;P2;SDS_P1;SDS_P2;PMS_P1;PMS_P2;Temp;Humidity;BMP_temperature;BMP_pressure;BME280_temperature;BME280_humidity;BME280_pressure;Samples;Min_cycle;Max_cycle;Signal;HPM_P1;HPM_P2
2023/01/06 00:02:00;;;;;;;134.98;52.40;;;3.20;99.90;;;;;;5095904;28;20039;-77
2023/01/06 00:04:26;;;;;;;131.40;45.13;;;3.20;99.90;;;;;;5077780;28;20047;-78
2023/01/06 00:06:51;;;;;;;65.15;25.23;;;3.20;99.90;;;;;;5077642;28;20437;-77
2023/01/06 00:09:17;;;;;;;51.03;28.83;;;3.20;99.90;;;;;;5077971;28;20017;-78
2023/01/06 00:11:42;;;;;;;95.47;31.75;;;3.10;99.90;;;;;;5077680;28;20417;-77
2023/01/06 00:14:08;;;;;;;208.27;78.45;;;3.20;99.90;;;;;;5095958;28;20062;-77
2023/01/06 00:16:35;;;;;;;100.53;38.45;;;3.10;99.90;;;;;;5077559;28;20035;-79
2023/01/06 00:19:01;;;;;;;85.63;33.70;;;3.10;99.90;;;;;;5077504;28;20028;-77
2023/01/06 00:21:27;;;;;;;47.15;31.38;;;3.10;99.90;;;;;;5095531;28;20031;-78
2023/01/06 00:23:53;;;;;;;22.33;10.20;;;3.10;99.90;;;;;;5077484;28;20039;-78
2023/01/06 00:26:18;;;;;;;74.45;27.63;;;3.20;99.90;;;;;;5077298;28;20035;-78
2023/01/06 00:28:44;;;;;;;50.50;22.85;;;3.10;99.90;;;;;;5095680;28;20032;-78
2023/01/06 00:31:12;;;;;;;13.05;6.95;;;3.10;99.90;;;;;;5077326;28;20469;-78
2023/01/06 00:33:38;;;;;;;119.03;46.10;;;3.10;99.90;;;;;;5095319;28;20020;-78
2023/01/06 00:36:05;;;;;;;86.85;34.30;;;3.10;99.90;;;;;;5095204;28;20024;-78
2023/01/06 00:38:31;;;;;;;23.45;10.00;;;3.10;99.90;;;;;;5077204;28;20111;-77
2023/01/06 00:40:57;;;;;;;59.17;22.92;;;3.00;99.90;;;;;;5029068;28;20106;-77
2023/01/06 00:43:22;;;;;;;86.28;36.75;;;3.10;99.90;;;;;;4992543;28;20042;-77
2023/01/06 00:45:48;;;;;;;76.85;35.63;;;3.00;99.90;;;;;;4975041;28;20503;-79
2023/01/06 00:48:14;;;;;;;48.45;22.85;;;3.00;99.90;;;;;;4975060;28;20030;-77
2023/01/06 00:50:39;;;;;;;128.77;61.47;;;3.00;99.90;;;;;;4992567;28;20489;-78
2023/01/06 00:53:05;;;;;;;42.42;24.73;;;3.00;99.90;;;;;;4992631;28;20045;-77
2023/01/06 00:55:31;;;;;;;80.25;35.72;;;3.00;99.90;;;;;;4992425;28;20486;-77
2023/01/06 00:57:56;;;;;;;112.60;59.08;;;3.00;99.90;;;;;;4992551;28;20101;-76
2023/01/06 01:00:22;;;;;;;34.05;16.38;;;3.00;99.90;;;;;;4992481;28;20022;-77
2023/01/06 01:02:48;;;;;;;55.53;38.97;;;3.00;99.90;;;;;;4974898;28;20038;-77
2023/01/06 01:05:13;;;;;;;35.42;18.85;;;3.00;99.90;;;;;;4975014;28;20022;-78
2023/01/06 01:07:39;;;;;;;60.53;25.70;;;3.00;99.90;;;;;;4974822;28;20019;-77
2023/01/06 01:10:06;;;;;;;31.85;13.18;;;3.00;99.90;;;;;;4974818;28;20058;-77
2023/01/06 01:12:32;;;;;;;43.72;29.35;;;3.00;99.90;;;;;;4992086;28;20484;-77
2023/01/06 01:14:57;;;;;;;50.05;20.35;;;3.00;99.90;;;;;;4992316;28;20029;-78
2023/01/06 01:17:26;;;;;;;25.20;11.50;;;3.00;99.90;;;;;;4974693;28;20018;-78
2023/01/06 01:19:54;;;;;;;50.38;19.88;;;3.00;99.90;;;;;;4974719;28;20022;-78
2023/01/06 01:22:21;;;;;;;29.83;14.75;;;2.90;99.90;;;;;;4991985;28;20034;-78
2023/01/06 01:24:46;;;;;;;391.02;301.70;;;2.90;99.90;;;;;;4974815;28;20050;-78
2023/01/06 01:27:13;;;;;;;33.95;25.30;;;2.90;99.90;;;;;;4991971;28;20049;-78
2023/01/06 01:29:38;;;;;;;36.83;32.67;;;2.90;99.90;;;;;;4974494;28;20019;-78
2023/01/06 01:32:05;;;;;;;103.45;92.35;;;2.80;99.90;;;;;;4974453;28;20532;-77
2023/01/06 01:34:30;;;;;;;64.60;55.85;;;2.90;99.90;;;;;;4974455;28;20019;-77
2023/01/06 01:36:56;;;;;;;7.35;5.30;;;2.80;99.90;;;;;;4974315;28;20026;-77
2023/01/06 01:39:24;;;;;;;24.60;22.27;;;2.80;99.90;;;;;;4975303;28;20019;-78
2023/01/06 01:41:51;;;;;;;7.32;6.13;;;2.80;99.90;;;;;;5075925;28;20017;-77
2023/01/06 01:44:54;;;;;;;27.48;15.93;;;2.80;99.90;;;;;;5094172;28;20047;-78
2023/01/06 01:47:32;;;;;;;25.85;19.40;;;2.80;99.90;;;;;;5075731;28;20032;-78
2023/01/06 01:50:07;;;;;;;10.32;7.40;;;2.80;99.90;;;;;;5075724;28;20527;-78
2023/01/06 01:52:34;;;;;;;10.68;7.95;;;2.80;99.90;;;;;;5075795;28;20012;-78
2023/01/06 01:55:00;;;;;;;6.60;4.40;;;2.80;99.90;;;;;;5094000;28;20023;-78
2023/01/06 01:57:43;;;;;;;8.82;6.45;;;2.80;99.90;;;;;;5093249;28;20526;-77
2023/01/06 02:00:09;;;;;;;5.35;4.07;;;2.80;99.90;;;;;;5093882;28;20020;-78
2023/01/06 02:02:36;;;;;;;9.63;7.70;;;2.80;99.90;;;;;;5075380;28;20043;-77
2023/01/06 02:05:01;;;;;;;77.90;70.68;;;2.70;99.90;;;;;;5075647;28;20020;-78
2023/01/06 02:07:28;;;;;;;18.67;17.00;;;2.70;99.90;;;;;;5075435;28;20538;-78
2023/01/06 02:10:12;;;;;;;9.35;8.00;;;2.80;99.90;;;;;;5093556;28;20393;-77
2023/01/06 02:12:38;;;;;;;9.30;4.55;;;2.80;99.90;;;;;;5075209;28;20024;-78
2023/01/06 02:15:17;;;;;;;36.75;32.92;;;2.70;99.90;;;;;;5093565;28;20069;-78
2023/01/06 02:17:49;;;;;;;6.45;5.60;;;2.80;99.90;;;;;;5093452;28;20024;-77
2023/01/06 02:20:24;;;;;;;19.75;13.40;;;2.70;99.90;;;;;;5075401;28;20144;-77
2023/01/06 02:23:20;;;;;;;13.68;9.25;;;2.70;99.90;;;;;;5075218;28;20040;-77
2023/01/06 02:26:01;;;;;;;7.57;6.00;;;2.70;99.90;;;;;;5093493;28;20110;-77
2023/01/06 02:28:44;;;;;;;15.40;13.77;;;2.70;99.90;;;;;;5075167;28;20027;-77
2023/01/06 02:31:43;;;;;;;12.32;10.30;;;2.70;99.90;;;;;;5075237;28;20493;-78
2023/01/06 02:34:12;;;;;;;36.83;25.63;;;2.70;99.90;;;;;;5075144;28;20024;-78
2023/01/06 02:37:00;;;;;;;34.40;30.02;;;2.70;99.90;;;;;;5093258;28;20024;-77
2023/01/06 02:39:51;;;;;;;20.27;12.75;;;2.70;99.90;;;;;;5069542;28;20020;-78
2023/01/06 02:42:28;;;;;;;38.83;18.90;;;2.70;99.90;;;;;;4973387;28;20406;-77
2023/01/06 02:44:56;;;;;;;30.80;23.98;;;2.70;99.90;;;;;;4991092;28;20030;-77
2023/01/06 02:47:31;;;;;;;50.58;33.42;;;2.70;99.90;;;;;;4973421;28;20055;-77
2023/01/06 02:50:15;;;;;;;50.35;27.88;;;2.70;99.90;;;;;;4973450;28;20022;-78
2023/01/06 02:52:53;;;;;;;28.63;19.48;;;2.60;99.90;;;;;;4973343;28;20036;-78
2023/01/06 02:55:35;;;;;;;24.23;13.93;;;2.60;99.90;;;;;;4990958;28;20031;-77
2023/01/06 02:58:07;;;;;;;77.78;69.97;;;2.60;99.90;;;;;;4990766;28;20061;-78
2023/01/06 03:00:35;;;;;;;70.23;34.90;;;2.60;99.90;;;;;;4973352;28;20065;-78
2023/01/06 03:03:05;;;;;;;19.52;12.35;;;2.60;99.90;;;;;;4973164;28;20039;-77
2023/01/06 03:05:34;;;;;;;59.58;28.88;;;2.60;99.90;;;;;;4973325;28;20033;-78
2023/01/06 03:08:05;;;;;;;51.95;22.83;;;2.60;99.90;;;;;;4973205;28;20014;-77
2023/01/06 03:10:32;;;;;;;29.85;17.05;;;2.60;99.90;;;;;;4976084;28;20130;-77
2023/01/06 03:13:11;;;;;;;7.22;4.78;;;2.60;99.90;;;;;;4976503;28;20011;-77
2023/01/06 03:15:37;;;;;;;45.30;24.10;;;2.60;99.90;;;;;;4976525;28;20018;-77
2023/01/06 03:18:03;;;;;;;71.03;58.53;;;2.60;99.90;;;;;;4976518;28;20033;-77
2023/01/06 03:20:29;;;;;;;66.22;30.20;;;2.60;99.90;;;;;;4993854;28;20026;-77
2023/01/06 03:22:55;;;;;;;44.70;23.80;;;2.60;99.90;;;;;;4976362;28;20030;-77
2023/01/06 03:25:21;;;;;;;47.25;34.08;;;2.60;99.90;;;;;;4993936;28;20058;-77
2023/01/06 03:27:47;;;;;;;87.40;62.42;;;2.60;99.90;;;;;;4993730;28;20033;-78
2023/01/06 03:30:13;;;;;;;24.63;14.40;;;2.60;99.90;;;;;;4976352;28;20023;-77
2023/01/06 03:32:47;;;;;;;20.73;10.82;;;2.60;99.90;;;;;;4993766;28;20460;-78
2023/01/06 03:35:32;;;;;;;43.60;21.08;;;2.60;99.90;;;;;;4976876;28;20152;-78
2023/01/06 03:38:26;;;;;;;103.85;64.85;;;2.60;99.90;;;;;;4976111;28;20077;-78
2023/01/06 03:43:10;;;;;;;68.20;33.40;;;2.60;99.90;;;;;;5061668;28;20020;-78
2023/01/06 03:44:28;;;;;;;60.20;25.07;;;2.50;99.90;;;;;;5096201;28;20150;-77
2023/01/06 03:47:02;;;;;;;147.70;76.30;;;2.50;99.90;;;;;;5096444;28;20073;-77
2023/01/06 03:49:31;;;;;;;58.13;32.00;;;2.50;99.90;;;;;;5096271;28;20016;-77
2023/01/06 03:52:28;;;;;;;60.00;39.30;;;2.50;99.90;;;;;;5096205;28;20405;-77
2023/01/06 03:55:01;;;;;;;41.10;23.00;;;2.50;99.90;;;;;;5076603;28;20070;-78
2023/01/06 03:57:32;;;;;;;52.65;24.80;;;2.50;99.90;;;;;;5096157;28;20024;-76
2023/01/06 04:00:09;;;;;;;113.50;43.17;;;2.50;99.90;;;;;;5096091;28;20043;-76
2023/01/06 04:02:39;;;;;;;53.10;31.55;;;2.50;99.90;;;;;;5095875;28;20109;-77
2023/01/06 04:05:12;;;;;;;50.53;42.63;;;2.60;99.90;;;;;;5077704;28;20032;-77
2023/01/06 04:07:39;;;;;;;167.73;138.98;;;2.50;99.90;;;;;;5096165;28;20026;-78
2023/01/06 04:10:06;;;;;;;71.95;41.75;;;2.50;99.90;;;;;;5077476;28;20506;-76
2023/01/06 04:12:37;;;;;;;85.70;61.05;;;2.50;99.90;;;;;;5077914;28;20028;-77
2023/01/06 04:15:13;;;;;;;45.25;29.58;;;2.50;99.90;;;;;;5077730;28;20416;-78
2023/01/06 04:17:39;;;;;;;43.65;24.50;;;2.50;99.90;;;;;;5077614;28;20513;-77
2023/01/06 04:20:07;;;;;;;52.40;24.85;;;2.50;99.90;;;;;;5095598;28;20032;-77
2023/01/06 04:22:34;;;;;;;26.98;14.60;;;2.50;99.90;;;;;;5004775;28;20042;-78
2023/01/06 04:24:59;;;;;;;21.63;10.57;;;2.50;99.90;;;;;;4975582;28;20472;-78
2023/01/06 04:27:25;;;;;;;49.35;28.08;;;2.50;99.90;;;;;;4975593;28;20019;-77
2023/01/06 04:29:50;;;;;;;27.45;18.98;;;2.50;99.90;;;;;;4993038;28;20026;-78
2023/01/06 04:32:16;;;;;;;36.38;22.75;;;2.40;99.90;;;;;;4992825;28;20026;-78
2023/01/06 04:34:42;;;;;;;18.13;13.32;;;2.40;99.90;;;;;;4975297;28;20022;-77
2023/01/06 04:37:07;;;;;;;15.95;9.13;;;2.40;99.90;;;;;;4992717;28;20050;-77
2023/01/06 04:39:33;;;;;;;12.93;6.90;;;2.40;99.90;;;;;;4988876;28;20026;-78
2023/01/06 04:41:58;;;;;;;6.63;5.70;;;2.30;99.90;;;;;;5077136;28;20016;-77
2023/01/06 04:44:24;;;;;;;13.55;8.50;;;2.30;99.90;;;;;;5077139;28;20115;-76
2023/01/06 04:46:50;;;;;;;142.10;122.40;;;2.20;99.90;;;;;;5095122;28;20028;-77
2023/01/06 04:49:15;;;;;;;61.17;54.42;;;2.20;99.90;;;;;;5095191;28;20024;-77
2023/01/06 04:51:41;;;;;;;32.72;27.05;;;2.20;99.90;;;;;;5077001;28;20020;-76
2023/01/06 04:54:06;;;;;;;35.85;24.88;;;2.10;99.90;;;;;;5076989;28;20024;-78
2023/01/06 04:56:32;;;;;;;27.13;21.77;;;2.10;99.90;;;;;;5061774;28;20024;-76
2023/01/06 04:58:58;;;;;;;13.32;10.88;;;2.00;99.90;;;;;;5076889;28;20016;-78
2023/01/06 05:01:25;;;;;;;12.25;7.75;;;2.00;99.90;;;;;;5094920;28;20036;-78
2023/01/06 05:03:51;;;;;;;9.55;6.82;;;2.00;99.90;;;;;;5003768;28;20139;-77
2023/01/06 05:06:18;;;;;;;9.50;6.82;;;1.90;99.90;;;;;;4974868;28;20037;-77
2023/01/06 05:08:44;;;;;;;6.78;6.03;;;1.90;99.90;;;;;;4992276;28;20030;-77
2023/01/06 05:11:11;;;;;;;9.10;6.63;;;1.90;99.90;;;;;;4974660;28;20061;-76
2023/01/06 05:13:37;;;;;;;6.88;5.38;;;1.90;99.90;;;;;;4992144;28;20160;-78
2023/01/06 05:16:13;;;;;;;8.20;5.38;;;1.90;99.90;;;;;;4974653;28;20488;-78
2023/01/06 05:18:39;;;;;;;8.45;5.50;;;1.80;99.90;;;;;;4992259;28;20027;-77
2023/01/06 05:21:05;;;;;;;7.13;4.93;;;1.80;99.90;;;;;;4991952;28;20101;-78
2023/01/06 05:23:30;;;;;;;10.48;6.47;;;1.80;99.90;;;;;;4974558;28;20088;-78
2023/01/06 05:25:56;;;;;;;9.68;7.88;;;1.80;99.90;;;;;;4974576;28;20456;-78
2023/01/06 05:28:22;;;;;;;19.85;11.70;;;1.80;99.90;;;;;;4974586;28;20018;-78
2023/01/06 05:30:47;;;;;;;10.70;7.88;;;1.80;99.90;;;;;;4974516;28;20027;-77
2023/01/06 05:33:13;;;;;;;17.52;13.25;;;1.80;99.90;;;;;;4973328;28;20023;-76
2023/01/06 05:35:39;;;;;;;9.35;6.90;;;1.80;99.90;;;;;;4974456;28;20498;-77
2023/01/06 05:38:05;;;;;;;10.73;9.32;;;1.80;99.90;;;;;;4991752;28;20030;-78
2023/01/06 05:40:31;;;;;;;17.13;11.38;;;1.80;99.90;;;;;;5029939;28;20466;-78
2023/01/06 05:42:57;;;;;;;10.85;7.28;;;1.80;99.90;;;;;;5075587;28;20061;-77
2023/01/06 05:45:23;;;;;;;7.63;6.63;;;1.80;99.90;;;;;;5075751;28;20050;-78
2023/01/06 05:47:49;;;;;;;10.82;7.57;;;1.80;99.90;;;;;;5094075;28;20052;-77
2023/01/06 05:50:15;;;;;;;9.13;6.13;;;1.80;99.90;;;;;;5093943;28;20027;-78
2023/01/06 05:52:40;;;;;;;10.48;7.35;;;1.80;99.90;;;;;;5093928;28;20024;-77
2023/01/06 05:55:07;;;;;;;11.45;7.13;;;1.90;99.90;;;;;;5094029;28;20103;-77
2023/01/06 05:57:33;;;;;;;11.95;7.32;;;1.80;99.90;;;;;;5093720;28;20028;-76
2023/01/06 05:59:58;;;;;;;12.82;9.48;;;1.80;99.90;;;;;;5093912;28;20024;-77
2023/01/06 06:02:24;;;;;;;10.75;8.77;;;1.90;99.90;;;;;;5093503;28;20051;-77
2023/01/06 06:04:50;;;;;;;9.48;6.85;;;1.80;99.90;;;;;;5093865;28;20027;-77
2023/01/06 06:07:16;;;;;;;6.85;5.57;;;1.80;99.90;;;;;;5075483;28;20381;-77
2023/01/06 06:09:41;;;;;;;11.05;5.93;;;1.80;99.90;;;;;;5075428;28;20496;-77
2023/01/06 06:12:07;;;;;;;11.18;6.20;;;1.80;99.90;;;;;;5034419;28;20054;-77
2023/01/06 06:14:32;;;;;;;9.45;6.82;;;1.80;99.90;;;;;;5072359;28;20038;-76
2023/01/06 06:16:58;;;;;;;9.98;6.38;;;1.80;99.90;;;;;;5018104;28;20066;-77
2023/01/06 06:19:24;;;;;;;12.30;7.03;;;1.80;99.90;;;;;;5019668;28;20052;-78
2023/01/06 06:21:51;;;;;;;56.65;47.78;;;1.80;99.90;;;;;;5018876;28;20103;-76
2023/01/06 06:24:16;;;;;;;14.52;9.90;;;1.80;99.90;;;;;;5015266;28;20018;-77
2023/01/06 06:26:42;;;;;;;12.10;7.53;;;1.80;99.90;;;;;;5041955;28;20473;-78
2023/01/06 06:29:08;;;;;;;12.02;9.95;;;1.80;99.90;;;;;;5025715;28;20045;-77
2023/01/06 06:31:33;;;;;;;12.63;7.35;;;1.80;99.90;;;;;;5020091;28;20057;-77
2023/01/06 06:34:01;;;;;;;10.88;6.95;;;1.80;99.90;;;;;;4978799;28;20030;-77
2023/01/06 06:36:27;;;;;;;9.85;6.57;;;1.90;99.90;;;;;;4987864;28;20105;-77
2023/01/06 06:38:54;;;;;;;7.47;6.03;;;1.80;99.90;;;;;;4964322;28;20023;-78
2023/01/06 06:41:20;;;;;;;11.02;6.60;;;1.80;99.90;;;;;;5022830;28;20387;-78
2023/01/06 06:43:47;;;;;;;11.63;8.18;;;1.80;99.90;;;;;;5017979;28;20026;-78
2023/01/06 06:46:12;;;;;;;9.70;7.63;;;1.90;99.90;;;;;;5025271;28;20024;-78
2023/01/06 06:48:38;;;;;;;11.20;7.53;;;1.90;99.90;;;;;;5043860;28;20034;-79
2023/01/06 06:51:10;;;;;;;10.85;7.15;;;1.90;99.90;;;;;;5035253;28;20066;-79
2023/01/06 06:53:36;;;;;;;9.25;7.20;;;2.00;99.90;;;;;;5060779;28;20032;-77
2023/01/06 06:56:04;;;;;;;9.48;6.35;;;2.00;99.90;;;;;;5052582;28;20059;-79
2023/01/06 06:58:29;;;;;;;9.27;5.57;;;2.10;99.90;;;;;;5025992;28;20705;-79
2023/01/06 07:00:55;;;;;;;5.97;5.05;;;2.10;99.90;;;;;;5013096;28;20107;-79
2023/01/06 07:03:21;;;;;;;9.50;5.65;;;2.10;99.90;;;;;;5012265;28;20034;-79
2023/01/06 07:05:49;;;;;;;9.35;5.80;;;2.10;99.90;;;;;;5002493;28;20023;-79
2023/01/06 07:08:15;;;;;;;10.43;6.90;;;2.10;99.90;;;;;;4975136;28;20038;-78
2023/01/06 07:10:44;;;;;;;8.93;6.32;;;2.10;99.90;;;;;;4990143;28;20096;-78
2023/01/06 07:13:09;;;;;;;8.95;6.18;;;2.20;99.90;;;;;;4972323;28;20109;-78
2023/01/06 07:15:35;;;;;;;12.02;7.00;;;2.20;99.90;;;;;;4988620;28;20444;-78
2023/01/06 07:18:03;;;;;;;9.88;6.43;;;2.20;99.90;;;;;;4990039;28;20054;-78
2023/01/06 07:20:29;;;;;;;12.15;6.60;;;2.20;99.90;;;;;;4972697;28;20042;-78
2023/01/06 07:22:55;;;;;;;13.00;7.25;;;2.30;99.90;;;;;;4989662;28;20045;-78
2023/01/06 07:25:21;;;;;;;11.23;7.03;;;2.30;99.90;;;;;;4988046;28;20027;-78
2023/01/06 07:27:51;;;;;;;13.43;7.95;;;2.30;99.90;;;;;;4970473;28;20022;-78
2023/01/06 07:30:17;;;;;;;9.02;7.38;;;2.30;99.90;;;;;;4970642;28;20026;-78
2023/01/06 07:32:42;;;;;;;13.63;7.70;;;2.40;99.90;;;;;;4987902;28;20076;-78
2023/01/06 07:35:09;;;;;;;13.63;7.82;;;2.40;99.90;;;;;;4970537;28;20095;-78
2023/01/06 07:37:34;;;;;;;15.45;8.60;;;2.40;99.90;;;;;;4969929;28;20611;-78
2023/01/06 07:40:00;;;;;;;12.82;8.00;;;2.40;99.90;;;;;;5028605;28;20020;-79
2023/01/06 07:42:25;;;;;;;12.75;7.78;;;2.40;99.90;;;;;;5075474;28;20043;-79
2023/01/06 07:44:51;;;;;;;10.73;7.07;;;2.50;99.90;;;;;;5074161;28;20116;-79
2023/01/06 07:47:16;;;;;;;12.23;6.60;;;2.50;99.90;;;;;;5031622;28;20022;-79
2023/01/06 07:49:42;;;;;;;12.35;7.85;;;2.50;99.90;;;;;;5017465;28;20069;-80
2023/01/06 07:52:10;;;;;;;10.43;6.93;;;2.50;99.90;;;;;;5020903;28;20026;-80
2023/01/06 07:54:36;;;;;;;13.85;7.90;;;2.50;99.90;;;;;;5058568;28;20024;-79
2023/01/06 07:57:02;;;;;;;18.58;8.02;;;2.50;99.90;;;;;;5018225;28;20084;-79
2023/01/06 07:59:27;;;;;;;12.00;8.50;;;2.50;99.90;;;;;;5045270;28;20048;-79
2023/01/06 08:01:54;;;;;;;11.82;7.05;;;2.40;99.90;;;;;;5026573;28;20065;-79
2023/01/06 08:04:19;;;;;;;9.30;5.82;;;2.40;99.90;;;;;;5012275;28;20050;-79
2023/01/06 08:06:45;;;;;;;11.35;6.38;;;2.50;99.90;;;;;;5043866;28;20045;-78
2023/01/06 08:09:10;;;;;;;7.88;6.32;;;2.40;99.90;;;;;;5025094;28;20017;-78
2023/01/06 08:11:36;;;;;;;9.75;6.03;;;2.50;99.90;;;;;;5075147;28;20253;-78
2023/01/06 08:14:02;;;;;;;13.57;5.88;;;2.50;99.90;;;;;;5019606;28;20039;-78
2023/01/06 08:16:27;;;;;;;11.43;7.78;;;2.50;99.90;;;;;;5030028;28;20032;-78
2023/01/06 08:18:53;;;;;;;12.10;6.13;;;2.60;99.90;;;;;;5023995;28;20030;-78
2023/01/06 08:21:18;;;;;;;8.13;5.90;;;2.60;99.90;;;;;;4998333;28;20022;-79
2023/01/06 08:23:44;;;;;;;9.07;5.30;;;2.70;99.90;;;;;;4975067;28;20518;-78
2023/01/06 08:26:12;;;;;;;11.52;5.68;;;2.70;99.90;;;;;;4992677;28;20058;-78
2023/01/06 08:28:39;;;;;;;9.63;5.28;;;2.80;99.90;;;;;;4992554;28;20026;-78
2023/01/06 08:31:09;;;;;;;7.50;6.05;;;2.80;99.90;;;;;;4992667;28;20489;-79
2023/01/06 08:33:35;;;;;;;10.15;7.78;;;2.80;99.90;;;;;;4992787;28;20568;-78
2023/01/06 08:36:04;;;;;;;10.00;6.57;;;2.90;99.90;;;;;;4975111;28;20129;-78
2023/01/06 08:38:31;;;;;;;9.93;6.30;;;2.90;99.90;;;;;;4975003;28;20029;-77
2023/01/06 08:40:58;;;;;;;10.65;4.90;;;2.90;99.90;;;;;;5071032;28;20020;-78
2023/01/06 08:43:24;;;;;;;11.00;5.85;;;3.00;99.90;;;;;;4991973;28;20509;-77
2023/01/06 08:45:50;;;;;;;7.05;5.88;;;3.00;99.90;;;;;;4975483;28;20026;-77
2023/01/06 08:48:16;;;;;;;11.77;7.43;;;3.10;99.90;;;;;;5028764;28;20075;-77
2023/01/06 08:50:42;;;;;;;12.00;7.93;;;3.10;99.90;;;;;;5037054;28;20048;-76
2023/01/06 08:53:08;;;;;;;12.05;7.72;;;3.10;99.90;;;;;;5026482;28;20022;-76
2023/01/06 08:55:37;;;;;;;13.48;7.82;;;3.20;99.90;;;;;;5021709;28;20016;-75
2023/01/06 08:58:03;;;;;;;11.75;7.57;;;3.20;99.90;;;;;;5060189;28;20043;-75
2023/01/06 09:00:29;;;;;;;11.70;7.45;;;3.30;99.90;;;;;;5032321;28;20085;-77
2023/01/06 09:02:54;;;;;;;13.82;7.85;;;3.30;99.90;;;;;;5019884;28;20390;-76
2023/01/06 09:05:20;;;;;;;9.23;7.45;;;3.40;99.90;;;;;;5029723;28;20016;-76
2023/01/06 09:07:45;;;;;;;14.50;10.18;;;3.30;99.90;;;;;;5038484;28;20107;-76
2023/01/06 09:10:11;;;;;;;14.20;8.05;;;3.30;99.90;;;;;;5025916;28;20053;-76
2023/01/06 09:12:37;;;;;;;14.77;8.63;;;3.30;99.90;;;;;;4977182;28;20109;-76
2023/01/06 09:15:04;;;;;;;12.65;8.23;;;3.40;99.90;;;;;;5066147;28;20067;-77
2023/01/06 09:17:29;;;;;;;15.93;9.68;;;3.40;99.90;;;;;;5058501;28;20499;-76
2023/01/06 09:19:55;;;;;;;12.90;8.90;;;3.50;99.90;;;;;;5001747;28;20032;-76
2023/01/06 09:22:21;;;;;;;11.18;8.48;;;3.50;99.90;;;;;;5023838;28;20079;-76
2023/01/06 09:24:46;;;;;;;12.57;7.90;;;3.40;99.90;;;;;;5039713;28;20098;-76
2023/01/06 09:27:12;;;;;;;12.77;7.88;;;3.30;99.90;;;;;;5039467;28;20039;-76
2023/01/06 09:29:37;;;;;;;14.52;8.70;;;3.30;99.90;;;;;;5029014;28;20095;-76
2023/01/06 09:32:03;;;;;;;14.77;8.82;;;3.20;99.90;;;;;;5019655;28;20088;-77
2023/01/06 09:34:29;;;;;;;14.00;9.25;;;3.30;99.90;;;;;;5041507;28;20051;-77
2023/01/06 09:36:54;;;;;;;13.63;7.85;;;3.30;99.90;;;;;;5027516;28;20050;-77
2023/01/06 09:39:20;;;;;;;15.82;8.27;;;3.30;99.90;;;;;;5026316;28;20022;-76
2023/01/06 09:41:45;;;;;;;11.85;7.13;;;3.30;99.90;;;;;;5029343;28;20065;-76
2023/01/06 09:44:16;;;;;;;13.80;7.93;;;3.40;99.90;;;;;;5032548;28;20423;-76
2023/01/06 09:46:47;;;;;;;14.02;8.40;;;3.40;99.90;;;;;;5030720;28;20024;-78
2023/01/06 09:49:39;;;;;;;13.73;7.93;;;3.50;99.90;;;;;;4994074;28;20026;-78
2023/01/06 09:52:30;;;;;;;12.87;7.20;;;3.60;99.90;;;;;;4984590;28;20022;-76
2023/01/06 09:55:17;;;;;;;14.15;8.02;;;3.50;99.90;;;;;;4978350;28;20038;-78
2023/01/06 09:57:57;;;;;;;14.20;7.90;;;3.50;99.90;;;;;;4989121;28;20030;-77
2023/01/06 10:00:44;;;;;;;15.43;10.38;;;3.40;99.90;;;;;;4989706;28;20065;-77
2023/01/06 10:03:18;;;;;;;13.18;8.85;;;3.30;99.90;;;;;;4985041;28;20411;-76
2023/01/06 10:06:17;;;;;;;12.20;7.97;;;3.30;99.90;;;;;;4988126;28;20459;-77
2023/01/06 10:08:57;;;;;;;15.80;8.90;;;3.30;99.90;;;;;;4962716;28;20026;-76
2023/01/06 10:11:37;;;;;;;12.32;7.55;;;3.30;99.90;;;;;;4978769;28;20046;-77
2023/01/06 10:14:03;;;;;;;24.42;12.75;;;3.20;99.90;;;;;;4988941;28;20479;-77
2023/01/06 10:16:47;;;;;;;15.35;8.45;;;3.10;99.90;;;;;;4987005;28;20041;-76
2023/01/06 10:19:21;;;;;;;12.50;7.68;;;3.10;99.90;;;;;;4988355;28;20472;-76
2023/01/06 10:21:51;;;;;;;19.15;10.88;;;3.10;99.90;;;;;;4976281;28;20034;-76
2023/01/06 10:24:31;;;;;;;11.00;7.38;;;3.20;99.90;;;;;;4988296;28;20044;-77
2023/01/06 10:27:09;;;;;;;10.70;7.18;;;3.20;99.90;;;;;;4988251;28;20060;-77
2023/01/06 10:29:37;;;;;;;10.88;7.05;;;3.30;99.90;;;;;;4987920;28;20033;-77
2023/01/06 10:32:04;;;;;;;16.20;10.60;;;3.30;99.90;;;;;;4988226;28;20387;-78
2023/01/06 10:34:32;;;;;;;11.80;6.35;;;3.30;99.90;;;;;;5028509;28;20038;-78
2023/01/06 10:37:04;;;;;;;20.98;10.75;;;3.40;99.90;;;;;;4988002;28;20065;-77
2023/01/06 10:39:32;;;;;;;10.10;6.90;;;3.40;99.90;;;;;;4986926;28;20057;-77
2023/01/06 10:45:15;;;;;;;109.43;36.22;;;3.50;99.90;;;;;;4996638;28;20091;-77
2023/01/06 10:47:42;;;;;;;12.13;7.32;;;3.50;99.90;;;;;;4983340;28;20019;-79
2023/01/06 10:50:13;;;;;;;8.10;4.50;;;3.60;99.90;;;;;;4970230;28;20066;-78
2023/01/06 10:52:40;;;;;;;5.90;4.47;;;3.60;99.90;;;;;;4984963;28;20026;-78
2023/01/06 10:55:06;;;;;;;6.95;5.15;;;3.60;99.90;;;;;;4983641;28;20495;-78
2023/01/06 10:57:37;;;;;;;9.20;6.10;;;3.70;99.90;;;;;;4976347;28;20038;-77
2023/01/06 11:00:23;;;;;;;12.88;7.00;;;3.70;99.90;;;;;;4970649;28;20018;-76
2023/01/06 11:02:51;;;;;;;9.85;6.10;;;3.70;99.90;;;;;;4984463;28;20076;-77
2023/01/06 11:05:21;;;;;;;7.28;5.18;;;3.80;99.90;;;;;;4983068;28;20030;-78
2023/01/06 11:08:02;;;;;;;8.60;6.13;;;3.80;99.90;;;;;;5034966;28;20020;-77
2023/01/06 11:10:48;;;;;;;9.52;6.60;;;3.80;99.90;;;;;;4982646;28;20050;-78
2023/01/06 11:13:34;;;;;;;8.90;5.85;;;3.90;99.90;;;;;;4987933;28;20050;-78
2023/01/06 11:16:05;;;;;;;8.77;5.82;;;3.90;99.90;;;;;;4978148;28;20129;-77
2023/01/06 11:18:35;;;;;;;11.65;7.20;;;4.00;99.90;;;;;;4960733;28;20031;-77
2023/01/06 11:21:15;;;;;;;8.70;6.25;;;3.90;99.90;;;;;;4971985;28;20038;-78
2023/01/06 11:23:43;;;;;;;9.45;6.10;;;3.90;99.90;;;;;;4974747;28;20390;-77
2023/01/06 11:26:11;;;;;;;7.35;5.72;;;3.80;99.90;;;;;;4979122;28;20038;-77
2023/01/06 11:28:43;;;;;;;10.93;7.05;;;3.80;99.90;;;;;;4977680;28;20083;-77
2023/01/06 11:31:19;;;;;;;13.45;8.65;;;3.80;99.90;;;;;;4982985;28;20117;-77
2023/01/06 11:33:53;;;;;;;12.95;7.68;;;3.90;99.90;;;;;;4989136;28;20039;-77
2023/01/06 11:36:21;;;;;;;12.48;7.25;;;3.90;99.90;;;;;;4992529;28;20445;-76
2023/01/06 11:38:59;;;;;;;8.02;6.45;;;3.90;99.90;;;;;;4974661;28;20113;-77
2023/01/06 11:41:27;;;;;;;10.13;6.28;;;3.80;99.90;;;;;;4978740;28;20062;-77
2023/01/06 11:43:55;;;;;;;10.07;7.22;;;3.90;99.90;;;;;;4961349;28;20451;-77
2023/01/06 11:46:24;;;;;;;9.57;7.00;;;3.90;99.90;;;;;;4966419;28;20034;-77
2023/01/06 11:48:54;;;;;;;12.63;8.20;;;3.80;99.90;;;;;;4980030;28;20026;-77
2023/01/06 11:51:42;;;;;;;10.77;7.00;;;3.90;99.90;;;;;;4991225;28;20443;-78
2023/01/06 11:54:28;;;;;;;13.07;8.13;;;3.90;99.90;;;;;;4981839;28;20027;-77
2023/01/06 11:57:40;;;;;;;11.25;7.57;;;3.80;99.90;;;;;;4992089;28;20039;-76
2023/01/06 12:00:30;;;;;;;12.77;7.95;;;3.90;99.90;;;;;;4998843;28;20080;-77
2023/01/06 12:03:07;;;;;;;13.55;8.52;;;4.00;99.90;;;;;;4980524;28;20051;-77
2023/01/06 12:05:38;;;;;;;12.23;6.93;;;4.10;99.90;;;;;;4988097;28;20041;-77
2023/01/06 12:08:15;;;;;;;9.25;5.55;;;4.20;99.90;;;;;;4990400;28;20035;-76
2023/01/06 12:10:44;;;;;;;9.57;6.05;;;4.30;99.90;;;;;;4990172;28;20087;-77
2023/01/06 12:13:15;;;;;;;9.13;6.05;;;4.30;99.90;;;;;;4991397;28;20399;-76
2023/01/06 12:15:44;;;;;;;11.07;6.47;;;4.40;99.90;;;;;;4989889;28;20022;-76
2023/01/06 12:18:17;;;;;;;14.80;8.00;;;4.50;99.90;;;;;;4990196;28;20034;-76
2023/01/06 12:20:46;;;;;;;11.43;6.10;;;4.40;99.90;;;;;;4991499;28;20022;-76
2023/01/06 12:23:21;;;;;;;6.47;5.13;;;4.50;99.90;;;;;;4985682;28;20050;-76
2023/01/06 12:25:48;;;;;;;5.05;4.55;;;4.40;99.90;;;;;;4991370;28;20026;-76
2023/01/06 12:28:19;;;;;;;7.25;4.72;;;4.40;99.90;;;;;;4991180;28;20040;-76
2023/01/06 12:30:49;;;;;;;7.55;5.28;;;4.50;99.90;;;;;;5004733;28;20042;-77
2023/01/06 12:33:45;;;;;;;7.15;4.50;;;4.50;99.90;;;;;;5002338;28;20046;-77
2023/01/06 12:36:33;;;;;;;7.78;4.78;;;4.50;99.90;;;;;;4977874;28;20035;-77
2023/01/06 12:39:03;;;;;;;7.05;5.32;;;4.60;99.90;;;;;;5004474;28;20467;-77
2023/01/06 12:41:36;;;;;;;8.20;4.93;;;4.50;99.90;;;;;;4984647;28;20069;-76
2023/01/06 12:44:29;;;;;;;5.75;4.82;;;4.50;99.90;;;;;;4974031;28;20038;-77
2023/01/06 12:47:04;;;;;;;6.82;4.95;;;4.50;99.90;;;;;;4991431;28;20375;-77
2023/01/06 12:49:39;;;;;;;9.23;4.60;;;4.60;99.90;;;;;;4974299;28;20026;-77
2023/01/06 12:52:11;;;;;;;7.10;4.90;;;4.60;99.90;;;;;;4973007;28;20026;-76
2023/01/06 12:54:37;;;;;;;5.50;4.90;;;4.60;99.90;;;;;;4972811;28;20113;-77
2023/01/06 12:57:36;;;;;;;8.65;5.43;;;4.60;99.90;;;;;;4973129;28;20121;-77
2023/01/06 13:00:13;;;;;;;9.23;5.93;;;4.50;99.90;;;;;;4991148;28;20030;-78
2023/01/06 13:02:57;;;;;;;7.63;5.20;;;4.50;99.90;;;;;;4991521;28;20039;-78
2023/01/06 13:05:52;;;;;;;17.30;9.32;;;4.50;99.90;;;;;;4992125;28;20471;-77